createdAt,value
2019-02-24T00:02:06.027Z,50.93
2019-02-24T00:04:32.758Z,51.49
2019-02-24T00:06:59.485Z,51.65
2019-02-24T00:09:26.217Z,51.09
2019-02-24T00:11:52.953Z,51.27
2019-02-24T00:14:20.478Z,50.04
2019-02-24T00:16:47.255Z,50.11
2019-02-24T00:19:13.981Z,50.74
2019-02-24T00:21:40.714Z,50.19
2019-02-24T00:24:07.436Z,50.94
2019-02-24T00:26:34.185Z,49.42
2019-02-24T00:29:00.999Z,50.13
2019-02-24T00:31:27.726Z,50.22
2019-02-24T00:33:54.466Z,48.73
2019-02-24T00:36:21.209Z,49.71
2019-02-24T00:38:47.965Z,49.79
2019-02-24T00:41:14.683Z,49.04
2019-02-24T00:43:41.442Z,48.06
2019-02-24T00:46:08.153Z,48.13
2019-02-24T00:48:34.921Z,48.06
2019-02-24T00:51:01.637Z,48.26
2019-02-24T00:53:28.593Z,47.92
2019-02-24T00:55:55.313Z,48.08
2019-02-24T00:58:22.058Z,49.30
2019-02-24T01:00:48.789Z,48.56
2019-02-24T01:03:15.542Z,48.72
2019-02-24T01:05:42.272Z,48.63
2019-02-24T01:08:09.009Z,48.00
2019-02-24T01:10:35.726Z,47.43
2019-02-24T01:13:02.465Z,48.11
2019-02-24T01:15:29.217Z,48.38
2019-02-24T01:17:55.949Z,48.48
2019-02-24T01:20:22.666Z,46.98
2019-02-24T01:22:49.417Z,48.92
2019-02-24T01:25:16.142Z,48.54
2019-02-24T01:27:42.962Z,47.47
2019-02-24T01:30:09.712Z,49.79
2019-02-24T01:32:36.454Z,48.33
2019-02-24T01:35:03.211Z,46.92
2019-02-24T01:37:29.950Z,46.73
2019-02-24T01:39:56.657Z,48.42
2019-02-24T01:42:23.417Z,47.78
2019-02-24T01:44:50.135Z,48.64
2019-02-24T01:47:16.881Z,49.63
2019-02-24T01:49:43.603Z,51.73
2019-02-24T01:52:10.359Z,53.58
2019-02-24T01:54:37.085Z,52.44
2019-02-24T01:57:03.825Z,52.96
2019-02-24T01:59:30.537Z,52.05
2019-02-24T02:01:57.262Z,52.44
2019-02-24T02:04:23.997Z,52.71
2019-02-24T02:06:50.717Z,51.40
2019-02-24T02:09:18.402Z,51.14
2019-02-24T02:11:45.129Z,52.27
2019-02-24T02:14:11.894Z,50.40
2019-02-24T02:16:38.622Z,50.99
2019-02-24T02:19:05.354Z,50.63
2019-02-24T02:21:32.069Z,50.60
2019-02-24T02:23:58.815Z,50.53
2019-02-24T02:26:25.529Z,50.79
2019-02-24T02:28:52.269Z,51.58
2019-02-24T02:31:19.008Z,52.76
2019-02-24T02:33:45.794Z,53.24
2019-02-24T02:36:12.532Z,54.02
2019-02-24T02:38:39.268Z,53.40
2019-02-24T02:41:05.990Z,52.72
2019-02-24T02:43:32.729Z,52.79
2019-02-24T02:45:59.449Z,54.29
2019-02-24T02:48:26.193Z,55.78
2019-02-24T02:50:52.919Z,55.76
2019-02-24T02:53:19.645Z,57.25
2019-02-24T02:55:46.370Z,57.68
2019-02-24T02:58:13.115Z,57.78
2019-02-24T03:00:39.837Z,58.55
2019-02-24T03:03:06.573Z,56.34
2019-02-24T03:05:33.286Z,55.75
2019-02-24T03:08:06.934Z,54.86
2019-02-24T03:10:33.660Z,55.10
2019-02-24T03:13:00.398Z,53.96
2019-02-24T03:15:27.172Z,53.77
2019-02-24T03:17:53.875Z,55.36
2019-02-24T03:20:20.609Z,55.09
2019-02-24T03:22:47.430Z,55.12
2019-02-24T03:25:14.153Z,53.97
2019-02-24T03:27:40.885Z,54.49
2019-02-24T03:30:07.699Z,56.51
2019-02-24T03:32:34.419Z,56.05
2019-02-24T03:35:01.133Z,57.04
2019-02-24T03:37:27.862Z,59.13
2019-02-24T03:39:54.609Z,59.46
2019-02-24T03:42:21.331Z,60.17
2019-02-24T03:44:48.169Z,61.17
2019-02-24T03:47:14.898Z,60.12
2019-02-24T03:49:41.627Z,60.90
2019-02-24T03:52:08.338Z,61.40
2019-02-24T03:54:35.167Z,63.34
2019-02-24T03:57:01.985Z,61.94
2019-02-24T03:59:28.727Z,62.43
2019-02-24T04:01:55.445Z,64.08
2019-02-24T04:04:22.195Z,62.08
2019-02-24T04:06:48.909Z,62.22
2019-02-24T04:09:15.647Z,63.71
2019-02-24T04:11:42.358Z,62.70
2019-02-24T04:14:09.107Z,63.14
2019-02-24T04:16:35.826Z,64.73
2019-02-24T04:19:02.654Z,64.60
2019-02-24T04:21:29.361Z,64.98
2019-02-24T04:23:56.099Z,65.32
2019-02-24T04:26:22.821Z,64.95
2019-02-24T04:28:49.549Z,64.54
2019-02-24T04:31:16.293Z,65.11
2019-02-24T04:33:43.019Z,66.22
2019-02-24T04:36:09.742Z,65.76
2019-02-24T04:38:36.473Z,65.92
2019-02-24T04:41:03.211Z,65.42
2019-02-24T04:43:29.930Z,65.10
2019-02-24T04:45:56.674Z,66.35
2019-02-24T04:48:23.393Z,65.63
2019-02-24T04:50:50.150Z,64.99
2019-02-24T04:53:16.880Z,64.77
2019-02-24T04:55:43.619Z,64.70
2019-02-24T04:58:10.326Z,65.85
2019-02-24T05:00:37.065Z,68.69
2019-02-24T05:03:03.827Z,68.13
2019-02-24T05:05:30.538Z,66.90
2019-02-24T05:07:57.270Z,65.16
2019-02-24T05:10:24.005Z,64.12
2019-02-24T05:12:50.740Z,63.24
2019-02-24T05:15:17.494Z,62.52
2019-02-24T05:17:44.197Z,64.43
2019-02-24T05:20:10.947Z,67.92
2019-02-24T05:22:37.802Z,70.31
2019-02-24T05:25:04.652Z,70.19
2019-02-24T05:27:31.357Z,69.23
2019-02-24T05:29:58.102Z,69.36
2019-02-24T05:32:24.822Z,69.88
2019-02-24T05:34:51.567Z,71.25
2019-02-24T05:37:18.290Z,73.30
2019-02-24T05:39:45.014Z,73.94
2019-02-24T05:42:11.722Z,71.01
2019-02-24T05:44:38.462Z,69.54
2019-02-24T05:47:05.177Z,70.58
2019-02-24T05:49:32.471Z,69.93
2019-02-24T05:51:59.190Z,70.69
2019-02-24T05:54:25.944Z,70.49
2019-02-24T05:56:52.649Z,71.65
2019-02-24T05:59:19.378Z,71.78
2019-02-24T06:01:46.096Z,71.46
2019-02-24T06:04:12.890Z,70.91
2019-02-24T06:06:39.625Z,70.36
2019-02-24T06:09:07.076Z,70.23
2019-02-24T06:11:33.798Z,69.97
2019-02-24T06:14:00.532Z,68.08
2019-02-24T06:16:27.280Z,69.17
2019-02-24T06:18:54.074Z,69.65
2019-02-24T06:21:20.774Z,69.42
2019-02-24T06:23:47.518Z,67.85
2019-02-24T06:26:14.247Z,67.49
2019-02-24T06:28:40.981Z,68.35
2019-02-24T06:31:07.709Z,68.76
2019-02-24T06:33:34.463Z,67.22
2019-02-24T06:36:01.178Z,64.29
2019-02-24T06:38:27.914Z,63.92
2019-02-24T06:40:54.635Z,62.95
2019-02-24T06:43:21.362Z,63.56
2019-02-24T06:45:48.094Z,63.19
2019-02-24T06:48:14.880Z,63.13
2019-02-24T06:50:56.582Z,63.02
2019-02-24T06:53:23.326Z,63.71
2019-02-24T06:55:50.078Z,63.06
2019-02-24T06:58:18.413Z,63.72
2019-02-24T07:00:43.567Z,63.54
2019-02-24T07:03:10.352Z,62.90
2019-02-24T07:05:37.065Z,62.38
2019-02-24T07:08:03.814Z,61.76
2019-02-24T07:10:30.533Z,62.49
2019-02-24T07:12:57.282Z,62.56
2019-02-24T07:15:24.742Z,62.73
2019-02-24T07:20:13.057Z,59.36
2019-02-24T07:22:40.524Z,58.31
2019-02-24T07:25:07.250Z,59.62
2019-02-24T07:27:33.986Z,57.74
2019-02-24T07:30:00.709Z,57.09
2019-02-24T07:32:27.457Z,58.19
2019-02-24T07:34:54.177Z,56.64
2019-02-24T07:37:20.914Z,56.05
2019-02-24T07:39:47.658Z,54.70
2019-02-24T07:42:14.410Z,54.53
2019-02-24T07:44:41.953Z,55.08
2019-02-24T07:47:08.698Z,54.60
2019-02-24T07:49:35.416Z,53.46
2019-02-24T07:52:03.182Z,52.46
2019-02-24T07:54:29.893Z,51.49
2019-02-24T07:56:57.433Z,51.32
2019-02-24T07:59:24.141Z,53.39
2019-02-24T08:01:50.918Z,51.60
2019-02-24T08:04:18.690Z,50.64
2019-02-24T08:06:45.425Z,48.72
2019-02-24T08:09:12.166Z,49.14
2019-02-24T08:11:38.894Z,48.85
2019-02-24T08:14:06.301Z,48.20
2019-02-24T08:16:32.498Z,49.65
2019-02-24T08:18:59.234Z,48.06
2019-02-24T08:21:25.958Z,47.17
2019-02-24T08:23:52.714Z,46.63
2019-02-24T08:26:19.430Z,47.25
2019-02-24T08:28:46.169Z,44.94
2019-02-24T08:31:12.879Z,45.14
2019-02-24T08:33:39.674Z,46.86
2019-02-24T08:36:06.393Z,45.76
2019-02-24T08:38:33.117Z,43.98
2019-02-24T08:40:59.849Z,44.91
2019-02-24T08:43:26.634Z,43.95
2019-02-24T08:45:53.358Z,45.11
2019-02-24T08:48:20.077Z,43.74
2019-02-24T08:50:46.782Z,44.56
2019-02-24T08:53:13.525Z,42.19
2019-02-24T08:55:40.241Z,41.67
2019-02-24T08:58:07.098Z,41.46
2019-02-24T09:00:33.825Z,41.36
2019-02-24T09:03:00.556Z,40.90
2019-02-24T09:05:27.265Z,41.23
2019-02-24T09:07:54.042Z,42.05
2019-02-24T09:10:20.877Z,41.67
2019-02-24T09:12:47.613Z,40.07
2019-02-24T09:15:14.387Z,41.33
2019-02-24T09:17:41.124Z,40.31
2019-02-24T09:20:08.386Z,40.74
2019-02-24T09:22:35.174Z,39.87
2019-02-24T09:25:03.297Z,41.08
2019-02-24T09:27:28.666Z,39.93
2019-02-24T09:29:55.429Z,38.82
2019-02-24T09:32:22.157Z,39.82
2019-02-24T09:34:48.913Z,40.73
2019-02-24T09:37:15.633Z,39.13
2019-02-24T09:39:42.386Z,38.56
2019-02-24T09:42:09.106Z,37.58
2019-02-24T09:44:35.882Z,39.24
2019-02-24T09:47:02.607Z,39.02
2019-02-24T09:49:29.370Z,37.01
2019-02-24T09:51:56.089Z,38.93
2019-02-24T09:54:22.814Z,37.69
2019-02-24T09:56:49.547Z,38.40
2019-02-24T09:59:16.281Z,37.87
2019-02-24T10:01:43.038Z,38.11
2019-02-24T10:04:09.765Z,37.09
2019-02-24T10:06:36.486Z,37.74
2019-02-24T10:09:03.579Z,36.29
2019-02-24T10:11:30.304Z,36.02
2019-02-24T10:13:57.049Z,35.27
2019-02-24T10:16:23.787Z,35.75
2019-02-24T10:18:50.524Z,34.31
2019-02-24T10:21:17.246Z,34.05
2019-02-24T10:23:43.989Z,33.01
2019-02-24T10:26:10.729Z,34.69
2019-02-24T10:28:37.504Z,34.80
2019-02-24T10:31:04.222Z,34.49
2019-02-24T10:33:30.966Z,36.45
2019-02-24T10:35:57.698Z,34.00
2019-02-24T10:38:24.434Z,34.16
2019-02-24T10:40:51.161Z,34.99
2019-02-24T10:43:17.902Z,35.55
2019-02-24T10:45:44.630Z,30.74
2019-02-24T10:48:13.928Z,34.16
2019-02-24T10:50:38.094Z,33.11
2019-02-24T10:53:04.885Z,34.93
2019-02-24T10:55:31.617Z,32.67
2019-02-24T10:57:58.361Z,32.48
2019-02-24T11:00:25.244Z,32.65
2019-02-24T11:02:51.974Z,31.59
2019-02-24T11:05:18.723Z,32.89
2019-02-24T11:07:45.475Z,31.34
2019-02-24T11:10:12.194Z,30.94
2019-02-24T11:12:38.945Z,29.26
2019-02-24T11:15:05.733Z,31.23
2019-02-24T11:17:32.441Z,30.31
2019-02-24T11:19:59.181Z,31.52
2019-02-24T11:22:25.949Z,30.83
2019-02-24T11:24:52.685Z,31.67
2019-02-24T11:27:19.455Z,30.72
2019-02-24T11:29:46.137Z,31.54
2019-02-24T11:32:12.843Z,30.55
2019-02-24T11:34:39.585Z,30.34
2019-02-24T11:37:06.293Z,30.25
2019-02-24T11:39:33.042Z,30.72
2019-02-24T11:41:59.754Z,30.56
2019-02-24T11:44:26.482Z,29.82
2019-02-24T11:46:53.194Z,29.66
2019-02-24T11:49:19.926Z,30.79
2019-02-24T11:51:46.654Z,31.88
2019-02-24T11:54:13.373Z,33.16
2019-02-24T11:56:40.169Z,33.17
2019-02-24T11:59:06.909Z,32.03
2019-02-24T12:01:33.690Z,32.10
2019-02-24T12:04:00.413Z,32.68
2019-02-24T12:06:27.133Z,32.98
2019-02-24T12:08:53.870Z,30.61
2019-02-24T12:11:20.627Z,31.38
2019-02-24T12:13:47.322Z,31.12
2019-02-24T12:16:14.046Z,30.02
2019-02-24T12:18:40.778Z,31.79
2019-02-24T12:21:07.494Z,28.81
2019-02-24T12:23:34.221Z,30.43
2019-02-24T12:26:00.988Z,29.27
2019-02-24T12:28:27.743Z,29.54
2019-02-24T12:30:54.455Z,29.48
2019-02-24T12:33:21.171Z,28.62
2019-02-24T12:35:47.907Z,29.97
2019-02-24T12:38:14.625Z,31.16
2019-02-24T12:40:41.362Z,29.01
2019-02-24T12:43:08.104Z,31.16
2019-02-24T12:45:34.842Z,29.64
2019-02-24T12:48:01.566Z,28.25
2019-02-24T12:50:28.310Z,27.91
2019-02-24T12:52:55.045Z,28.52
2019-02-24T12:55:21.893Z,28.50
2019-02-24T12:57:48.610Z,28.82
2019-02-24T13:00:16.747Z,29.22
2019-02-24T13:02:43.485Z,30.33
2019-02-24T13:05:10.281Z,31.54
2019-02-24T13:07:36.993Z,30.01
2019-02-24T13:10:04.757Z,31.30
2019-02-24T13:12:31.482Z,29.67
2019-02-24T13:14:58.238Z,30.98
2019-02-24T13:17:24.962Z,29.22
2019-02-24T13:19:51.754Z,30.30
2019-02-24T13:22:18.485Z,30.06
2019-02-24T13:24:45.220Z,30.34
2019-02-24T13:27:11.942Z,29.25
2019-02-24T13:29:38.728Z,29.59
2019-02-24T13:32:14.396Z,29.43
2019-02-24T13:34:32.213Z,28.81
2019-02-24T13:36:58.928Z,29.23
2019-02-24T13:39:25.670Z,30.89
2019-02-24T13:41:52.490Z,31.54
2019-02-24T13:44:19.233Z,30.20
2019-02-24T13:46:45.945Z,30.99
2019-02-24T13:49:12.657Z,31.38
2019-02-24T13:51:39.393Z,30.65
2019-02-24T13:54:06.106Z,30.77
2019-02-24T13:56:32.842Z,30.23
2019-02-24T13:58:59.567Z,31.20
2019-02-24T14:01:26.301Z,29.97
2019-02-24T14:03:53.034Z,30.07
2019-02-24T14:06:20.429Z,29.80
2019-02-24T14:08:46.537Z,31.31
2019-02-24T14:11:13.282Z,29.39
2019-02-24T14:13:39.985Z,29.94
2019-02-24T14:16:06.759Z,30.45
2019-02-24T14:18:33.494Z,30.24
2019-02-24T14:21:00.247Z,29.55
2019-02-24T14:23:26.970Z,30.22
2019-02-24T14:25:53.707Z,30.48
2019-02-24T14:28:20.420Z,30.09
2019-02-24T14:30:47.156Z,30.36
2019-02-24T14:33:13.865Z,29.07
2019-02-24T14:35:40.687Z,31.97
2019-02-24T14:38:07.515Z,31.97
2019-02-24T14:40:34.254Z,31.93
2019-02-24T14:43:00.987Z,33.05
2019-02-24T14:45:27.723Z,30.83
2019-02-24T14:47:54.443Z,31.82
2019-02-24T14:50:21.178Z,33.21
2019-02-24T14:52:47.895Z,31.99
2019-02-24T14:55:14.672Z,32.33
2019-02-24T14:57:41.388Z,32.13
2019-02-24T15:00:09.798Z,32.20
2019-02-24T15:02:42.467Z,32.50
2019-02-24T15:05:03.669Z,32.96
2019-02-24T15:07:30.406Z,30.21
2019-02-24T15:09:57.122Z,33.31
2019-02-24T15:12:23.858Z,31.34
2019-02-24T15:14:50.574Z,31.82
2019-02-24T15:17:17.314Z,33.58
2019-02-24T15:19:44.037Z,32.11
2019-02-24T15:22:10.773Z,31.72
2019-02-24T15:24:37.534Z,31.15
2019-02-24T15:27:04.242Z,29.82
2019-02-24T15:29:30.974Z,32.27
2019-02-24T15:31:57.698Z,31.15
2019-02-24T15:34:24.454Z,33.04
2019-02-24T15:36:51.182Z,31.87
2019-02-24T15:39:17.921Z,33.75
2019-02-24T15:41:44.638Z,33.53
2019-02-24T15:44:11.401Z,34.04
2019-02-24T15:46:38.114Z,32.90
2019-02-24T15:49:04.862Z,31.77
2019-02-24T15:51:31.573Z,32.75
2019-02-24T15:53:58.306Z,32.82
2019-02-24T15:56:25.109Z,33.45
2019-02-24T15:58:51.842Z,33.37
2019-02-24T16:01:18.618Z,34.47
2019-02-24T16:03:45.369Z,35.26
2019-02-24T16:06:12.107Z,36.68
2019-02-24T16:08:38.842Z,35.58
2019-02-24T16:11:05.566Z,34.95
2019-02-24T16:13:32.301Z,36.21
2019-02-24T16:15:59.018Z,36.19
2019-02-24T16:18:25.758Z,35.80
2019-02-24T16:20:52.470Z,36.69
2019-02-24T16:23:19.242Z,38.70
2019-02-24T16:25:46.017Z,40.39
2019-02-24T16:28:12.750Z,40.05
2019-02-24T16:30:39.477Z,39.83
2019-02-24T16:33:10.581Z,38.49
2019-02-24T16:35:32.962Z,38.13
2019-02-24T16:37:59.708Z,40.21
2019-02-24T16:40:26.449Z,41.09
2019-02-24T16:42:53.162Z,41.23
2019-02-24T16:45:21.004Z,41.08
2019-02-24T16:47:47.733Z,41.95
2019-02-24T16:50:15.056Z,44.36
2019-02-24T16:52:41.761Z,43.86
2019-02-24T16:55:09.378Z,45.40
2019-02-24T16:57:36.218Z,43.45
2019-02-24T17:00:03.666Z,44.08
2019-02-24T17:02:30.394Z,41.51
2019-02-24T17:04:57.130Z,41.32
2019-02-24T17:07:23.859Z,40.62
2019-02-24T17:09:50.595Z,40.57
2019-02-24T17:12:17.798Z,41.30
2019-02-24T17:14:44.522Z,39.53
2019-02-24T17:17:11.350Z,39.53
2019-02-24T17:19:38.077Z,39.46
2019-02-24T17:22:04.797Z,41.02
2019-02-24T17:24:31.625Z,42.53
2019-02-24T17:26:58.346Z,41.35
2019-02-24T17:29:25.152Z,41.27
2019-02-24T17:31:51.846Z,42.27
2019-02-24T17:34:18.607Z,41.61
2019-02-24T17:36:45.333Z,40.52
2019-02-24T17:39:12.078Z,42.31
2019-02-24T17:41:38.983Z,42.08
2019-02-24T17:44:05.811Z,43.50
2019-02-24T17:46:32.639Z,42.36
2019-02-24T17:48:59.402Z,43.70
2019-02-24T17:51:26.125Z,44.09
2019-02-24T17:53:52.871Z,43.70
2019-02-24T17:56:19.706Z,43.58
2019-02-24T17:58:46.458Z,44.25
2019-02-24T18:01:13.314Z,43.13
2019-02-24T18:03:40.142Z,40.98
2019-02-24T18:06:06.885Z,39.39
2019-02-24T18:08:33.605Z,40.92
2019-02-24T18:11:00.355Z,42.31
2019-02-24T18:13:27.239Z,41.48
2019-02-24T18:15:53.982Z,41.54
2019-02-24T18:18:20.770Z,40.03
2019-02-24T18:20:47.507Z,39.14
2019-02-24T18:23:14.229Z,42.39
2019-02-24T18:25:41.034Z,44.55
2019-02-24T18:28:07.832Z,44.89
2019-02-24T18:30:34.565Z,42.25
2019-02-24T18:33:01.282Z,43.56
2019-02-24T18:35:28.074Z,44.14
2019-02-24T18:37:54.901Z,43.57
2019-02-24T18:40:21.642Z,42.41
2019-02-24T18:42:48.626Z,43.31
2019-02-24T18:45:15.364Z,43.65
2019-02-24T18:47:42.167Z,43.03
2019-02-24T18:50:09.638Z,43.10
2019-02-24T18:52:36.373Z,42.16
2019-02-24T18:55:03.251Z,43.18
2019-02-24T18:57:29.970Z,45.16
2019-02-24T18:59:56.734Z,44.75
2019-02-24T19:02:23.480Z,43.89
2019-02-24T19:04:50.242Z,42.56
2019-02-24T19:07:17.329Z,41.59
2019-02-24T19:09:44.093Z,41.05
2019-02-24T19:12:10.918Z,42.04
2019-02-24T19:14:38.318Z,41.67
2019-02-24T19:17:05.062Z,41.69
2019-02-24T19:19:31.851Z,42.66
2019-02-24T19:21:58.884Z,42.68
2019-02-24T19:24:25.722Z,43.13
2019-02-24T19:26:52.478Z,42.84
2019-02-24T19:29:19.224Z,43.60
2019-02-24T19:31:45.986Z,43.44
2019-02-24T19:34:12.819Z,41.85
2019-02-24T19:36:39.490Z,43.25
2019-02-24T19:39:06.222Z,42.54
2019-02-24T19:41:33.193Z,41.35
2019-02-24T19:43:59.928Z,42.39
2019-02-24T19:46:26.710Z,42.53
2019-02-24T19:48:53.451Z,42.24
2019-02-24T19:51:20.213Z,43.17
2019-02-24T19:53:46.961Z,41.97
2019-02-24T19:56:13.713Z,44.86
2019-02-24T19:58:41.666Z,46.70
2019-02-24T20:01:08.425Z,48.09
2019-02-24T20:03:35.184Z,46.40
2019-02-24T20:06:01.964Z,46.48
2019-02-24T20:08:28.709Z,44.88
2019-02-24T20:10:55.480Z,45.15
2019-02-24T20:13:22.230Z,43.66
2019-02-24T20:15:49.006Z,43.13
2019-02-24T20:18:15.884Z,43.57
2019-02-24T20:20:42.657Z,43.76
2019-02-24T20:23:09.382Z,41.08
2019-02-24T20:25:36.135Z,41.05
2019-02-24T20:28:02.884Z,43.74
2019-02-24T20:30:29.692Z,45.86
2019-02-24T20:32:56.426Z,43.95
2019-02-24T20:35:23.202Z,43.33
2019-02-24T20:37:50.396Z,44.32
2019-02-24T20:40:17.147Z,44.45
2019-02-24T20:42:43.903Z,45.65
2019-02-24T20:45:11.760Z,45.97
2019-02-24T20:47:38.509Z,44.15
2019-02-24T20:50:07.439Z,45.60
2019-02-24T20:52:34.511Z,45.28
2019-02-24T20:55:01.960Z,45.06
2019-02-24T20:57:28.717Z,44.23
2019-02-24T20:59:55.472Z,46.16
2019-02-24T21:02:22.206Z,46.27
2019-02-24T21:04:49.248Z,44.95
2019-02-24T21:07:16.010Z,44.67
2019-02-24T21:09:43.253Z,44.34
2019-02-24T21:12:09.536Z,44.22
2019-02-24T21:14:36.274Z,44.53
2019-02-24T21:17:03.543Z,43.48
2019-02-24T21:19:30.304Z,43.66
2019-02-24T21:21:57.593Z,43.29
2019-02-24T21:24:24.319Z,43.00
2019-02-24T21:26:51.791Z,43.46
2019-02-24T21:29:18.550Z,43.74
2019-02-24T21:31:45.317Z,44.04
2019-02-24T21:34:12.075Z,43.36
2019-02-24T21:36:38.845Z,44.39
2019-02-24T21:39:05.914Z,45.46
2019-02-24T21:41:32.666Z,46.08
2019-02-24T21:43:59.414Z,45.24
2019-02-24T21:46:26.178Z,45.85
2019-02-24T21:48:53.072Z,46.27
2019-02-24T21:51:19.838Z,46.06
2019-02-24T21:53:46.570Z,46.15
2019-02-24T21:56:13.422Z,47.09
2019-02-24T21:58:40.146Z,46.59
2019-02-24T22:01:06.887Z,46.89
2019-02-24T22:03:35.198Z,46.48
2019-02-24T22:06:02.021Z,46.93
2019-02-24T22:08:28.779Z,47.00
2019-02-24T22:10:55.539Z,47.06
2019-02-24T22:13:22.294Z,47.15
2019-02-24T22:15:49.064Z,48.59
2019-02-24T22:18:15.820Z,52.04
2019-02-24T22:20:42.569Z,53.23
2019-02-24T22:23:09.306Z,50.70
2019-02-24T22:25:36.119Z,50.26
2019-02-24T22:28:03.088Z,48.76
2019-02-24T22:30:30.175Z,49.54
2019-02-24T22:32:56.930Z,47.40
2019-02-24T22:35:23.766Z,48.61
2019-02-24T22:37:51.144Z,47.63
2019-02-24T22:40:17.870Z,48.56
2019-02-24T22:42:44.631Z,48.39
2019-02-24T22:45:12.615Z,48.31
2019-02-24T22:47:39.954Z,48.47
2019-02-24T22:50:06.838Z,47.32
2019-02-24T22:52:34.151Z,47.52
2019-02-24T22:55:00.883Z,48.66
2019-02-24T22:57:27.642Z,48.05
2019-02-24T22:59:54.680Z,47.47
2019-02-24T23:02:21.791Z,47.29
2019-02-24T23:04:48.530Z,46.82
2019-02-24T23:07:19.902Z,46.92
2019-02-24T23:09:45.937Z,48.92
2019-02-24T23:12:12.690Z,50.21
2019-02-24T23:14:39.418Z,49.70
2019-02-24T23:17:06.216Z,48.88
2019-02-24T23:19:32.962Z,47.86
2019-02-24T23:21:59.717Z,48.69
2019-02-24T23:24:26.452Z,51.71
2019-02-24T23:26:53.268Z,52.46
2019-02-24T23:29:19.922Z,52.13
2019-02-24T23:31:46.776Z,52.25
2019-02-24T23:34:13.513Z,51.60
2019-02-24T23:36:40.291Z,50.48
2019-02-24T23:39:07.448Z,51.10
2019-02-24T23:41:34.177Z,49.78
2019-02-24T23:44:00.929Z,50.93
2019-02-24T23:46:27.728Z,49.78
2019-02-24T23:48:54.449Z,49.42
2019-02-24T23:51:21.170Z,48.55
2019-02-24T23:53:47.922Z,48.36
2019-02-24T23:56:14.712Z,49.85
2019-02-24T23:58:41.443Z,50.82
